^^
Station Historical Data
Daily Summary for January 1, 2017 Units:  English    Metric   Both
« Previous Day
Next Day »
Daily Weekly Monthly Yearly Custom
  High: Low: Average:
Temperature: 44.9 °F 32.1 °F 40.1 °F
Dew Point: 31.0 °F 20.4 °F 25.1 °F
Humidity: 66% 41% 55%
Wind Speed: 8.0mph 0.0mph 1.7mph
Wind Gust: 14.0mph - -
Wind- - SW
Pressure: 30.46 in 29.90 in -
Precipitation: 0.00 in    
Historical Graphs
 
 
Tabular Data for January 1, 2017
Time Temperature Dew Point Pressure Wind Wind Speed Wind Gust Humidity Rainfall Rate (Hourly) Conditions
00:00 40.9 °F 26.8 °F 29.91 in South 3.0 mph 12.0 mph 57% 0.00 in OVC
00:10 40.9 °F 26.8 °F 29.90 in SW 3.0 mph 12.0 mph 57% 0.00 in OVC
00:20 40.9 °F 27.2 °F 29.90 in South 2.0 mph 12.0 mph 58% 0.00 in OVC
00:30 40.8 °F 27.2 °F 29.90 in SSW 2.0 mph 13.0 mph 58% 0.00 in OVC
00:40 40.9 °F 27.2 °F 29.90 in SSW 5.0 mph 9.0 mph 58% 0.00 in OVC
00:50 40.9 °F 27.2 °F 29.91 in SSW 3.0 mph 11.0 mph 58% 0.00 in OVC
01:00 40.9 °F 27.7 °F 29.91 in South 3.0 mph 10.0 mph 59% 0.00 in OVC
01:10 40.6 °F 28.2 °F 29.91 in SSW 8.0 mph 13.0 mph 61% 0.00 in -SN
01:20 40.3 °F 28.7 °F 29.90 in SSW 2.0 mph 12.0 mph 63% 0.00 in -SN
01:30 40.2 °F 28.6 °F 29.90 in South 3.0 mph 12.0 mph 63% 0.00 in -SN
01:40 40.4 °F 28.8 °F 29.91 in SSW 2.0 mph 7.0 mph 63% 0.00 in -SN
01:50 40.6 °F 28.6 °F 29.91 in SSW 2.0 mph 8.0 mph 62% 0.00 in -SN
02:00 40.8 °F 28.4 °F 29.92 in SW 5.0 mph 9.0 mph 61% 0.00 in -SN
02:10 40.9 °F 28.5 °F 29.92 in SSW 2.0 mph 10.0 mph 61% 0.00 in BKN
02:20 40.9 °F 28.5 °F 29.92 in SSW 5.0 mph 11.0 mph 61% 0.00 in BKN
02:30 40.9 °F 28.9 °F 29.92 in South 1.0 mph 9.0 mph 62% 0.00 in BKN
02:40 40.9 °F 28.5 °F 29.92 in SSW 2.0 mph 8.0 mph 61% 0.00 in BKN
02:50 41.0 °F 28.6 °F 29.92 in SSW 2.0 mph 7.0 mph 61% 0.00 in BKN
03:00 41.1 °F 28.6 °F 29.92 in SW 2.0 mph 7.0 mph 61% 0.00 in BKN
03:10 40.9 °F 28.9 °F 29.92 in SW 2.0 mph 7.0 mph 62% 0.00 in BKN
03:20 40.6 °F 28.6 °F 29.92 in SSW 1.0 mph 7.0 mph 62% 0.00 in BKN
03:30 40.3 °F 28.7 °F 29.93 in SW 3.0 mph 8.0 mph 63% 0.00 in BKN
03:40 40.2 °F 28.6 °F 29.93 in SSW 2.0 mph 6.0 mph 63% 0.00 in BKN
03:50 40.1 °F 28.5 °F 29.94 in SW 1.0 mph 6.0 mph 63% 0.00 in BKN
04:00 40.2 °F 28.2 °F 29.94 in SSW 2.0 mph 9.0 mph 62% 0.00 in BKN
04:10 40.3 °F 28.3 °F 29.95 in SSW 5.0 mph 10.0 mph 62% 0.00 in SCT
04:20 40.3 °F 27.9 °F 29.95 in SW 3.0 mph 10.0 mph 61% 0.00 in SCT
04:30 40.2 °F 27.8 °F 29.95 in WSW 5.0 mph 10.0 mph 61% 0.00 in SCT
04:40 40.1 °F 27.7 °F 29.96 in SW 2.0 mph 12.0 mph 61% 0.00 in SCT
04:50 40.1 °F 27.7 °F 29.96 in SW 3.0 mph 10.0 mph 61% 0.00 in SCT
05:00 40.2 °F 27.4 °F 29.96 in SW 5.0 mph 10.0 mph 60% 0.00 in SCT
05:10 40.3 °F 27.5 °F 29.97 in SW 2.0 mph 10.0 mph 60% 0.00 in FEW
05:20 40.4 °F 27.6 °F 29.97 in SSW 3.0 mph 10.0 mph 60% 0.00 in FEW
05:30 40.6 °F 27.4 °F 29.98 in SW 1.0 mph 9.0 mph 59% 0.00 in FEW
05:40 40.9 °F 27.7 °F 29.99 in SW 6.0 mph 12.0 mph 59% 0.00 in FEW
05:50 40.9 °F 27.2 °F 29.99 in SSW 7.0 mph 13.0 mph 58% 0.00 in FEW
06:00 40.6 °F 27.4 °F 29.99 in SSW 5.0 mph 12.0 mph 59% 0.00 in FEW
06:10 40.6 °F 27.4 °F 30.00 in SW 7.0 mph 12.0 mph 59% 0.00 in BKN
06:20 40.8 °F 27.2 °F 30.01 in SSW 6.0 mph 14.0 mph 58% 0.00 in BKN
06:30 40.8 °F 27.6 °F 30.01 in SW 7.0 mph 10.0 mph 59% 0.00 in BKN
06:40 40.6 °F 27.7 °F 30.02 in SSW 2.0 mph 13.0 mph 60% 0.00 in BKN
06:50 40.4 °F 28.0 °F 30.03 in SW 2.0 mph 8.0 mph 61% 0.00 in BKN
07:00 40.6 °F 28.2 °F 30.03 in SW 3.0 mph 9.0 mph 61% 0.00 in BKN
07:10 40.4 °F 28.0 °F 30.04 in SW 1.0 mph 8.0 mph 61% 0.00 in SCT
07:20 40.1 °F 27.7 °F 30.04 in WSW 1.0 mph 6.0 mph 61% 0.00 in SCT
07:30 39.6 °F 27.7 °F 30.04 in SW 1.0 mph 6.0 mph 62% 0.00 in SCT
07:40 39.4 °F 27.9 °F 30.05 in WSW 3.0 mph 6.0 mph 63% 0.00 in SCT
07:50 39.2 °F 27.7 °F 30.06 in SW 1.0 mph 5.0 mph 63% 0.00 in SCT
08:00 39.0 °F 27.8 °F 30.07 in SSW 1.0 mph 4.0 mph 64% 0.00 in SCT
08:10 38.8 °F 28.0 °F 30.07 in Calm   3.0 mph 65% 0.00 in FEW
08:20 39.1 °F 28.3 °F 30.08 in WSW 2.0 mph 6.0 mph 65% 0.00 in FEW
08:30 39.3 °F 28.5 °F 30.09 in SW 1.0 mph 8.0 mph 65% 0.00 in FEW
08:40 39.1 °F 28.3 °F 30.10 in SSW 1.0 mph 5.0 mph 65% 0.00 in FEW
08:50 38.9 °F 28.5 °F 30.11 in Calm   6.0 mph 66% 0.00 in FEW
09:00 39.1 °F 28.7 °F 30.12 in SSW 1.0 mph 7.0 mph 66% 0.00 in FEW
09:10 39.7 °F 29.3 °F 30.13 in SSW 1.0 mph 7.0 mph 66% 0.00 in SCT
09:20 40.6 °F 29.8 °F 30.14 in WSW 1.0 mph 7.0 mph 65% 0.00 in SCT
09:30 41.4 °F 30.1 °F 30.14 in SW 2.0 mph 7.0 mph 64% 0.00 in SCT
09:40 42.0 °F 30.7 °F 30.15 in WSW 2.0 mph 7.0 mph 64% 0.00 in SCT
09:50 42.7 °F 31.0 °F 30.16 in Calm   7.0 mph 63% 0.00 in SCT
09:59 42.8 °F 29.5 °F 30.17 in NNE 2.0 mph 12.0 mph 59% 0.00 in SCT
10:10 42.7 °F 27.6 °F 30.17 in North 3.0 mph 12.0 mph 55% 0.00 in SCT
10:20 42.6 °F 26.6 °F 30.17 in NNW 5.0 mph 14.0 mph 53% 0.00 in SCT
10:30 42.5 °F 26.1 °F 30.18 in NNW 5.0 mph 13.0 mph 52% 0.00 in SCT
10:40 42.8 °F 26.4 °F 30.18 in NE 2.0 mph 12.0 mph 52% 0.00 in SCT
10:50 42.9 °F 26.0 °F 30.18 in NNE 2.0 mph 12.0 mph 51% 0.00 in SCT
10:59 43.1 °F 25.7 °F 30.18 in NW 5.0 mph 10.0 mph 50% 0.00 in SCT
11:10 43.3 °F 25.4 °F 30.18 in NNW 3.0 mph 9.0 mph 49% 0.00 in FEW
11:20 43.5 °F 25.6 °F 30.19 in WNW 1.0 mph 9.0 mph 49% 0.00 in FEW
11:30 43.7 °F 25.8 °F 30.19 in Calm   8.0 mph 49% 0.00 in FEW
11:40 43.8 °F 24.9 °F 30.19 in NNW 2.0 mph 12.0 mph 47% 0.00 in FEW
11:50 43.6 °F 24.7 °F 30.19 in West 2.0 mph 9.0 mph 47% 0.00 in FEW
12:00 44.0 °F 24.5 °F 30.19 in SE 1.0 mph 8.0 mph 46% 0.00 in FEW
12:10 44.0 °F 24.5 °F 30.19 in NNW 2.0 mph 9.0 mph 46% 0.00 in FEW
12:20 43.8 °F 23.8 °F 30.19 in Calm   8.0 mph 45% 0.00 in FEW
12:30 43.9 °F 23.9 °F 30.19 in NW 2.0 mph 7.0 mph 45% 0.00 in FEW
12:40 44.1 °F 24.6 °F 30.19 in West 1.0 mph 6.0 mph 46% 0.00 in FEW
12:50 43.7 °F 24.8 °F 30.19 in WNW 1.0 mph 8.0 mph 47% 0.00 in FEW
12:59 44.1 °F 24.1 °F 30.19 in WSW 1.0 mph 8.0 mph 45% 0.00 in FEW
13:10 44.3 °F 24.3 °F 30.19 in WNW 2.0 mph 8.0 mph 45% 0.00 in FEW
13:20 44.3 °F 24.8 °F 30.20 in WNW 1.0 mph 9.0 mph 46% 0.00 in FEW
13:30 44.2 °F 23.6 °F 30.20 in NW 5.0 mph 8.0 mph 44% 0.00 in FEW
13:40 44.3 °F 24.8 °F 30.20 in NW 5.0 mph 12.0 mph 46% 0.00 in FEW
13:50 44.7 °F 26.1 °F 30.20 in North 2.0 mph 12.0 mph 48% 0.00 in FEW
14:00 44.5 °F 24.5 °F 30.21 in WNW 2.0 mph 12.0 mph 45% 0.00 in FEW
14:10 44.5 °F 24.5 °F 30.21 in NW 1.0 mph 8.0 mph 45% 0.00 in CLR
14:20 44.4 °F 23.8 °F 30.22 in NNW 5.0 mph 9.0 mph 44% 0.00 in CLR
14:30 44.5 °F 23.4 °F 30.22 in NW 1.0 mph 7.0 mph 43% 0.00 in CLR
14:40 44.8 °F 23.6 °F 30.23 in NNW 1.0 mph 4.0 mph 43% 0.00 in CLR
14:50 44.8 °F 23.6 °F 30.23 in NNW 1.0 mph 6.0 mph 43% 0.00 in CLR
15:00 44.6 °F 22.3 °F 30.24 in NNW 2.0 mph 8.0 mph 41% 0.00 in CLR
15:10 44.9 °F 23.2 °F 30.24 in WNW 1.0 mph 4.0 mph 42% 0.00 in CLR
15:20 44.6 °F 22.9 °F 30.25 in NW 2.0 mph 5.0 mph 42% 0.00 in CLR
15:30 44.5 °F 22.8 °F 30.26 in NNE 1.0 mph 6.0 mph 42% 0.00 in CLR
15:40 44.5 °F 22.8 °F 30.27 in NW 1.0 mph 5.0 mph 42% 0.00 in CLR
15:50 44.1 °F 22.4 °F 30.27 in NNW 1.0 mph 7.0 mph 42% 0.00 in CLR
16:00 44.1 °F 23.0 °F 30.28 in Calm   6.0 mph 43% 0.00 in CLR
16:10 44.3 °F 23.2 °F 30.28 in WNW 1.0 mph 3.0 mph 43% 0.00 in CLR
16:20 44.0 °F 22.4 °F 30.30 in WSW 1.0 mph 4.0 mph 42% 0.00 in CLR
16:30 43.4 °F 22.4 °F 30.30 in Calm   1.0 mph 43% 0.00 in CLR
16:40 42.3 °F 21.9 °F 30.31 in Calm   2.0 mph 44% 0.00 in CLR
16:50 41.7 °F 23.4 °F 30.32 in NE 1.0 mph 2.0 mph 48% 0.00 in CLR
17:00 41.3 °F 22.1 °F 30.33 in Calm   1.0 mph 46% 0.00 in CLR
17:10 40.7 °F 22.0 °F 30.33 in Calm   1.0 mph 47% 0.00 in CLR
17:20 40.7 °F 21.5 °F 30.33 in Calm   2.0 mph 46% 0.00 in CLR
17:30 40.4 °F 21.7 °F 30.34 in Calm   1.0 mph 47% 0.00 in CLR
17:40 40.0 °F 21.4 °F 30.33 in Calm   1.0 mph 47% 0.00 in CLR
17:50 40.0 °F 21.4 °F 30.34 in Calm   1.0 mph 47% 0.00 in CLR
18:00 39.8 °F 22.2 °F 30.35 in Calm   2.0 mph 49% 0.00 in CLR
18:10 38.3 °F 21.7 °F 30.34 in Calm     51% 0.00 in CLR
18:20 39.1 °F 22.0 °F 30.35 in Calm   1.0 mph 50% 0.00 in CLR
18:30 37.2 °F 22.1 °F 30.36 in Calm     54% 0.00 in CLR
18:40 38.7 °F 22.5 °F 30.36 in Calm   1.0 mph 52% 0.00 in CLR
18:50 38.1 °F 21.6 °F 30.36 in Calm     51% 0.00 in CLR
19:00 37.7 °F 21.6 °F 30.37 in Calm     52% 0.00 in CLR
19:10 37.4 °F 21.3 °F 30.38 in Calm     52% 0.00 in CLR
19:20 36.6 °F 21.5 °F 30.39 in Calm     54% 0.00 in CLR
19:30 35.5 °F 21.3 °F 30.39 in Calm     56% 0.00 in CLR
19:40 35.7 °F 22.4 °F 30.39 in Calm   1.0 mph 58% 0.00 in CLR
19:50 36.6 °F 22.0 °F 30.40 in Calm     55% 0.00 in CLR
20:00 36.8 °F 21.2 °F 30.40 in Calm     53% 0.00 in CLR
20:10 36.3 °F 20.8 °F 30.41 in Calm     53% 0.00 in CLR
20:20 35.0 °F 21.7 °F 30.42 in Calm     58% 0.00 in CLR
20:30 33.9 °F 21.1 °F 30.42 in Calm     59% 0.00 in CLR
20:40 34.0 °F 20.7 °F 30.43 in Calm     58% 0.00 in CLR
20:50 34.0 °F 21.1 °F 30.43 in Calm     59% 0.00 in CLR
21:00 34.1 °F 21.6 °F 30.43 in Calm   1.0 mph 60% 0.00 in CLR
21:10 35.5 °F 22.2 °F 30.42 in Calm   1.0 mph 58% 0.00 in CLR
21:20 35.5 °F 21.4 °F 30.43 in NNE 1.0 mph 1.0 mph 56% 0.00 in CLR
21:30 35.9 °F 22.6 °F 30.43 in Calm   1.0 mph 58% 0.00 in CLR
21:40 35.2 °F 21.4 °F 30.43 in Calm   1.0 mph 57% 0.00 in CLR
21:50 34.2 °F 21.4 °F 30.44 in Calm     59% 0.00 in CLR
22:00 33.6 °F 21.5 °F 30.45 in Calm     61% 0.00 in CLR
22:10 34.0 °F 21.2 °F 30.45 in Calm     59% 0.00 in CLR
22:20 34.1 °F 20.9 °F 30.46 in Calm   1.0 mph 58% 0.00 in CLR
22:30 34.0 °F 20.8 °F 30.46 in Calm     58% 0.00 in CLR
22:40 33.9 °F 21.5 °F 30.46 in Calm     60% 0.00 in CLR
22:50 33.2 °F 21.2 °F 30.46 in Calm     61% 0.00 in CLR
23:00 32.5 °F 20.6 °F 30.46 in Calm   1.0 mph 61% 0.00 in CLR
23:10 33.6 °F 21.2 °F 30.45 in Calm   1.0 mph 60% 0.00 in CLR
23:20 34.1 °F 20.4 °F 30.45 in Calm   1.0 mph 57% 0.00 in CLR
23:30 33.5 °F 21.1 °F 30.46 in Calm     60% 0.00 in CLR
23:40 32.1 °F 21.3 °F 30.46 in Calm     64% 0.00 in CLR
23:50 32.2 °F 20.6 °F 30.46 in Calm   1.0 mph 62% 0.00 in CLR
TarryTown NY Weather
Compliments of Weather Underground - 1.75 mb